Rising Sun, Ohio
Current Conditions -  °F | °C
As of 4:53 AM on Thursday 29 Jan 2015 (Local Time) from KTDZ Reporting Station
Overcast Overcast  
Wind Chill: 20°   Ceiling: 6000
Heat Index: 30°   Visibility: 10mi
Dew Point: 19°   Wind: 14mph
Humidity: 64%   Direction: 160°SSE
Pressure: 29.92"   Gusts: NA
Location:  41.2686°N, 83.4288°W
Report Text: KTDZ 290953Z AUTO 16012KT 10SM BKN060 OVC075 M01/M07 A2992 RMK AO2 SLP137 T10111072 TSNO
Loading
Personal Weather Stations






























Interactive Weather Map New forecast layout! Learn more

10-Day Weather Forecast

Advertisements
Track Severe Weather on mobile